LFRM/LME METAR and TAF weather

Enter ICAO airport designator
Station Type Date Time Source
LFRM METAR 2021/02/27 09:30 UTC NOAA

LFRM 270930Z AUTO 03010KT 360V070 CAVOK 07/01 Q1038 NOSIG


Station Type Date Time Source
LFRM Decoded METAR 2021/02/27 09:30 UTC NOAA

Le Mans, France (LFRM) 47-56N 000-12E 52M
Feb 27, 2021 - 04:30 AM EST / 2021.02.27 0930 UTC
Wind: from the NNE (030 degrees) at 12 MPH (10 KT) (direction variable):0
Visibility: greater than 7 mile(s):0
Temperature: 44 F (7 C)
Dew Point: 33 F (1 C)
Relative Humidity: 65%
Pressure (altimeter): 30.65 in. Hg (1038 hPa)
ob: LFRM 270930Z AUTO 03010KT 360V070 CAVOK 07/01 Q1038 NOSIG
cycle: 9

Station Type Date Time Source
LFRM TAF 2021/02/27 06:24 UTC NOAA

TAF TAF LFRM 270500Z 2706/2806 03008KT CAVOK

Example: see airport list